Time;durP1;ratioP1;P1;durP2;ratioP2;P2;SDS_P1;SDS_P2;PMS_P1;PMS_P2;Temp;Humidity;BMP_temperature;BMP_pressure;BME280_temperature;BME280_humidity;BME280_pressure;Samples;Min_cycle;Max_cycle;Signal;HPM_P1;HPM_P2
2023/08/15 00:01:39;;;;;;;18.67;17.47;;;25.00;99.60;;;;;;5039344;28;20228;-49
2023/08/15 00:04:04;;;;;;;17.97;16.87;;;24.90;99.90;;;;;;5040312;28;20260;-49
2023/08/15 00:06:30;;;;;;;18.67;17.60;;;24.90;99.90;;;;;;5039176;28;20194;-52
2023/08/15 00:08:56;;;;;;;19.63;18.40;;;24.70;99.90;;;;;;5040473;28;20625;-53
2023/08/15 00:11:22;;;;;;;18.97;17.87;;;24.70;99.90;;;;;;5040057;28;20186;-55
2023/08/15 00:13:48;;;;;;;19.40;18.20;;;24.70;99.90;;;;;;5038633;28;20335;-55
2023/08/15 00:16:14;;;;;;;18.70;17.57;;;24.60;99.90;;;;;;5038619;28;20787;-52
2023/08/15 00:18:40;;;;;;;18.43;17.33;;;24.50;99.90;;;;;;5040164;28;20196;-53
2023/08/15 00:21:05;;;;;;;17.50;16.40;;;24.40;99.90;;;;;;5039367;28;20525;-54
2023/08/15 00:23:31;;;;;;;17.17;16.17;;;24.20;99.90;;;;;;5039961;28;20214;-51
2023/08/15 00:25:57;;;;;;;17.30;16.30;;;24.00;99.90;;;;;;5040011;28;20877;-40
2023/08/15 00:28:22;;;;;;;17.27;16.30;;;23.90;99.90;;;;;;5040328;28;20182;-43
2023/08/15 00:30:48;;;;;;;17.50;16.40;;;23.80;99.90;;;;;;5039103;28;20190;-45
2023/08/15 00:33:13;;;;;;;17.23;16.13;;;23.70;99.90;;;;;;5040095;28;20217;-42
2023/08/15 00:35:39;;;;;;;17.33;16.33;;;23.60;99.90;;;;;;5039490;28;20608;-43
2023/08/15 00:38:04;;;;;;;17.33;16.03;;;23.50;99.90;;;;;;5039900;28;20231;-41
2023/08/15 00:40:30;;;;;;;17.20;16.20;;;23.50;99.90;;;;;;5039856;28;20193;-46
2023/08/15 00:42:56;;;;;;;15.60;14.80;;;23.40;99.90;;;;;;5039162;28;20201;-42
2023/08/15 00:45:21;;;;;;;16.63;15.63;;;23.30;99.90;;;;;;5038621;28;20190;-41
2023/08/15 00:47:47;;;;;;;15.50;14.60;;;23.20;99.90;;;;;;5022087;28;20206;-45
2023/08/15 00:50:13;;;;;;;15.57;14.77;;;23.20;99.90;;;;;;5039737;28;20182;-44
2023/08/15 00:52:40;;;;;;;16.10;15.10;;;23.00;99.90;;;;;;5039892;28;20220;-41
2023/08/15 00:55:07;;;;;;;16.80;15.63;;;23.00;99.90;;;;;;5042445;28;20203;-43
2023/08/15 00:57:33;;;;;;;16.47;15.50;;;23.00;99.90;;;;;;5042913;28;20574;-41
2023/08/15 00:59:58;;;;;;;15.93;15.03;;;22.90;99.90;;;;;;5042602;28;20444;-41
2023/08/15 01:02:24;;;;;;;14.70;13.90;;;22.90;99.90;;;;;;5042608;28;20178;-41
2023/08/15 01:04:50;;;;;;;15.47;14.60;;;22.80;99.90;;;;;;5042507;28;20190;-42
2023/08/15 01:07:17;;;;;;;15.20;14.40;;;22.70;99.90;;;;;;5042546;28;20649;-41
2023/08/15 01:09:43;;;;;;;14.60;13.83;;;22.60;99.90;;;;;;5042432;28;20181;-45
2023/08/15 01:12:28;;;;;;;14.77;13.87;;;22.60;99.90;;;;;;5042252;28;21048;-41
2023/08/15 01:15:05;;;;;;;14.10;13.30;;;22.60;99.90;;;;;;5042854;28;20439;-43
2023/08/15 01:17:48;;;;;;;14.80;14.00;;;22.50;99.90;;;;;;5024508;28;20436;-41
2023/08/15 01:20:18;;;;;;;14.13;13.33;;;22.50;99.90;;;;;;5042859;28;20850;-43
2023/08/15 01:22:47;;;;;;;14.83;13.93;;;22.40;99.90;;;;;;5042481;28;20459;-43
2023/08/15 01:25:13;;;;;;;14.63;13.77;;;22.30;99.90;;;;;;5042535;28;20471;-41
2023/08/15 01:27:38;;;;;;;14.80;13.90;;;22.20;99.90;;;;;;5041681;28;20444;-41
2023/08/15 01:30:05;;;;;;;15.00;14.10;;;22.10;99.90;;;;;;5042643;28;20923;-44
2023/08/15 01:33:02;;;;;;;15.10;14.00;;;22.20;99.90;;;;;;5042552;28;20186;-43
2023/08/15 01:35:39;;;;;;;13.70;12.70;;;22.10;99.90;;;;;;5018154;28;20432;-42
2023/08/15 01:38:24;;;;;;;14.37;13.67;;;21.90;99.90;;;;;;5042657;28;20420;-41
2023/08/15 01:40:55;;;;;;;14.07;13.30;;;21.80;99.90;;;;;;5041599;28;21209;-40
2023/08/15 01:43:22;;;;;;;14.80;14.00;;;21.80;99.90;;;;;;5041373;28;20985;-45
2023/08/15 01:45:48;;;;;;;14.60;13.80;;;21.70;99.90;;;;;;5042006;28;20447;-41
2023/08/15 01:48:15;;;;;;;15.00;14.20;;;21.60;99.90;;;;;;5042335;28;20416;-44
2023/08/15 01:50:40;;;;;;;14.43;13.70;;;21.60;99.90;;;;;;5042673;28;20491;-44
2023/08/15 01:53:06;;;;;;;13.40;12.80;;;21.50;99.90;;;;;;5042001;28;20921;-44
2023/08/15 01:55:31;;;;;;;15.00;14.10;;;21.40;99.90;;;;;;5040671;28;20564;-45
2023/08/15 01:57:57;;;;;;;14.57;13.57;;;21.40;99.90;;;;;;5041460;28;20194;-40
2023/08/15 02:00:23;;;;;;;14.90;14.00;;;21.30;99.90;;;;;;5041159;28;20186;-41
2023/08/15 02:02:48;;;;;;;14.17;13.17;;;21.20;99.90;;;;;;5039870;28;20224;-42
2023/08/15 02:05:14;;;;;;;14.03;13.23;;;21.20;99.90;;;;;;5041266;28;20656;-41
2023/08/15 02:07:40;;;;;;;14.37;13.57;;;21.10;99.90;;;;;;5040959;28;20201;-41
2023/08/15 02:10:06;;;;;;;14.43;13.63;;;21.00;99.90;;;;;;5041019;28;20640;-41
2023/08/15 02:12:31;;;;;;;15.00;14.10;;;21.00;99.90;;;;;;5041794;28;20420;-44
2023/08/15 02:14:57;;;;;;;14.73;13.83;;;21.00;99.90;;;;;;5041380;28;20207;-41
2023/08/15 02:17:23;;;;;;;14.10;13.30;;;20.90;99.90;;;;;;5041274;28;20699;-40
2023/08/15 02:19:48;;;;;;;15.27;14.40;;;20.90;99.90;;;;;;5041246;28;20190;-53
2023/08/15 02:22:14;;;;;;;14.93;14.03;;;20.80;99.90;;;;;;5041456;28;20400;-50
2023/08/15 02:24:40;;;;;;;14.60;13.70;;;20.80;99.90;;;;;;5041256;28;20827;-50
2023/08/15 02:27:06;;;;;;;15.07;14.27;;;20.80;99.90;;;;;;5041694;28;20424;-50
2023/08/15 02:29:32;;;;;;;15.13;14.33;;;20.80;99.90;;;;;;5041391;28;20228;-51
2023/08/15 02:31:57;;;;;;;14.90;14.00;;;20.80;99.90;;;;;;5037860;28;20194;-55
2023/08/15 02:34:23;;;;;;;14.47;13.67;;;20.70;99.90;;;;;;5039907;28;20190;-55
2023/08/15 02:36:48;;;;;;;14.07;13.30;;;20.70;99.90;;;;;;5041482;28;20220;-54
2023/08/15 02:39:16;;;;;;;16.20;15.20;;;20.70;99.90;;;;;;5040606;28;20212;-52
2023/08/15 02:41:42;;;;;;;15.43;14.53;;;20.70;99.90;;;;;;5041005;28;20178;-47
2023/08/15 02:44:07;;;;;;;15.40;14.30;;;20.70;99.90;;;;;;5041385;28;21598;-51
2023/08/15 02:46:33;;;;;;;14.73;13.83;;;20.60;99.90;;;;;;5041347;28;20427;-55
2023/08/15 02:48:59;;;;;;;15.17;14.27;;;20.60;99.90;;;;;;5041237;28;20240;-54
2023/08/15 02:51:24;;;;;;;16.80;15.50;;;20.60;99.90;;;;;;5041033;28;20201;-51
2023/08/15 02:53:50;;;;;;;15.70;14.60;;;20.50;99.90;;;;;;5040472;28;21519;-53
2023/08/15 02:56:16;;;;;;;15.50;14.50;;;20.50;99.90;;;;;;5040884;28;20173;-52
2023/08/15 02:58:42;;;;;;;15.10;14.20;;;20.50;99.90;;;;;;5039398;28;20186;-55
2023/08/15 03:01:07;;;;;;;15.80;14.70;;;20.50;99.90;;;;;;5039986;28;20201;-52
2023/08/15 03:03:33;;;;;;;14.80;13.80;;;20.50;99.90;;;;;;5040845;28;20475;-49
2023/08/15 03:06:03;;;;;;;15.13;14.13;;;20.50;99.90;;;;;;5040184;28;20935;-50
2023/08/15 03:08:29;;;;;;;15.27;14.20;;;20.40;99.90;;;;;;5040550;28;21363;-55
2023/08/15 03:10:55;;;;;;;15.80;14.90;;;20.40;99.90;;;;;;5040787;28;20412;-53
2023/08/15 03:13:21;;;;;;;14.67;13.80;;;20.30;99.90;;;;;;5040455;28;20420;-53
2023/08/15 03:15:56;;;;;;;15.53;14.53;;;20.40;99.90;;;;;;5040590;28;20507;-44
2023/08/15 03:18:22;;;;;;;15.20;14.30;;;20.40;99.90;;;;;;5037773;28;20189;-43
2023/08/15 03:21:04;;;;;;;15.50;14.50;;;20.30;99.90;;;;;;5040066;28;20510;-43
2023/08/15 03:23:30;;;;;;;15.03;14.10;;;20.30;99.90;;;;;;5039119;28;20209;-42
2023/08/15 03:26:02;;;;;;;14.80;13.90;;;20.30;99.90;;;;;;5040114;28;20522;-42
2023/08/15 03:28:28;;;;;;;15.97;14.87;;;20.30;99.90;;;;;;5040528;28;20420;-42
2023/08/15 03:30:54;;;;;;;16.50;15.30;;;20.30;99.90;;;;;;5040109;28;21011;-42
2023/08/15 03:33:20;;;;;;;15.67;14.67;;;20.30;99.90;;;;;;5040499;28;20507;-41
2023/08/15 03:35:48;;;;;;;16.10;15.10;;;20.20;99.90;;;;;;5039743;28;20428;-43
2023/08/15 03:38:18;;;;;;;16.60;15.03;;;20.20;99.90;;;;;;5040286;28;20412;-44
2023/08/15 03:40:45;;;;;;;16.70;15.60;;;20.20;99.90;;;;;;5040460;28;20427;-44
2023/08/15 03:43:12;;;;;;;17.20;16.10;;;20.20;99.90;;;;;;5040369;28;20556;-47
2023/08/15 03:45:38;;;;;;;17.00;15.80;;;20.20;99.90;;;;;;5039732;28;20446;-48
2023/08/15 03:48:05;;;;;;;16.20;15.10;;;20.20;99.90;;;;;;5038866;28;20440;-43
2023/08/15 03:50:35;;;;;;;17.20;16.10;;;20.10;99.90;;;;;;5040186;28;20959;-43
2023/08/15 03:53:01;;;;;;;16.47;15.37;;;20.10;99.90;;;;;;5040318;28;20416;-40
2023/08/15 03:55:31;;;;;;;16.03;14.93;;;20.10;99.90;;;;;;5039951;28;20780;-44
2023/08/15 03:57:57;;;;;;;15.43;14.43;;;20.00;99.90;;;;;;5040300;28;20439;-43
2023/08/15 04:00:23;;;;;;;16.73;15.63;;;20.10;99.90;;;;;;5039446;28;20436;-41
2023/08/15 04:02:49;;;;;;;15.57;14.47;;;20.00;99.90;;;;;;5039347;28;20679;-43
2023/08/15 04:05:15;;;;;;;16.90;15.83;;;20.10;99.90;;;;;;5039870;28;20427;-43
2023/08/15 04:07:41;;;;;;;15.53;14.53;;;20.00;99.90;;;;;;5039401;28;20182;-42
2023/08/15 04:10:07;;;;;;;15.80;14.70;;;20.00;99.90;;;;;;5039484;28;20459;-43
2023/08/15 04:12:36;;;;;;;16.60;15.50;;;20.00;99.90;;;;;;5040003;28;20170;-43
2023/08/15 04:15:02;;;;;;;17.03;15.83;;;20.00;99.90;;;;;;5037708;28;20432;-41
2023/08/15 04:17:28;;;;;;;16.37;15.30;;;20.00;99.90;;;;;;5039942;28;20426;-41
2023/08/15 04:19:53;;;;;;;17.50;16.30;;;20.00;99.90;;;;;;5039818;28;20423;-40
2023/08/15 04:22:19;;;;;;;16.57;15.50;;;20.00;99.90;;;;;;5015649;28;20302;-41
2023/08/15 04:24:45;;;;;;;17.30;16.10;;;20.00;99.90;;;;;;5038937;28;20255;-43
2023/08/15 04:27:10;;;;;;;18.47;17.27;;;20.00;99.90;;;;;;5021418;28;20189;-42
2023/08/15 04:29:36;;;;;;;17.57;16.37;;;20.00;99.90;;;;;;5039244;28;20189;-40
2023/08/15 04:32:02;;;;;;;18.53;17.13;;;20.10;99.90;;;;;;5042458;28;20293;-43
2023/08/15 04:34:28;;;;;;;18.37;17.10;;;20.10;99.90;;;;;;5042795;28;20519;-42
2023/08/15 04:36:54;;;;;;;19.30;18.00;;;20.10;99.90;;;;;;5041702;28;20212;-41
2023/08/15 04:39:21;;;;;;;19.47;18.27;;;20.20;99.90;;;;;;5041956;28;20272;-42
2023/08/15 04:41:47;;;;;;;19.30;18.00;;;20.20;99.90;;;;;;5043471;28;20243;-44
2023/08/15 04:44:12;;;;;;;19.77;18.47;;;20.40;99.90;;;;;;5042511;28;20467;-43
2023/08/15 04:46:38;;;;;;;20.53;19.13;;;20.50;99.90;;;;;;5043079;28;20708;-43
2023/08/15 04:49:04;;;;;;;18.83;17.53;;;20.70;99.90;;;;;;5025388;28;20309;-41
2023/08/15 04:51:29;;;;;;;18.33;17.23;;;20.80;99.90;;;;;;5043117;28;20244;-43
2023/08/15 04:53:55;;;;;;;18.03;16.83;;;20.90;99.90;;;;;;5043132;28;20420;-40
2023/08/15 04:56:22;;;;;;;19.17;18.03;;;21.00;99.90;;;;;;5043395;28;20189;-41
2023/08/15 04:58:48;;;;;;;19.80;18.60;;;21.10;99.90;;;;;;5043409;28;20215;-46
2023/08/15 05:01:13;;;;;;;18.60;17.50;;;21.20;99.90;;;;;;5042442;28;20444;-41
2023/08/15 05:03:39;;;;;;;17.20;16.20;;;21.30;99.90;;;;;;5042625;28;20489;-43
2023/08/15 05:06:05;;;;;;;17.77;16.73;;;21.40;99.90;;;;;;5043486;28;20698;-44
2023/08/15 05:08:31;;;;;;;17.43;16.33;;;21.50;99.90;;;;;;5025189;28;20189;-41
2023/08/15 05:10:56;;;;;;;16.77;15.87;;;21.60;99.90;;;;;;5043099;28;20182;-42
2023/08/15 05:13:22;;;;;;;16.70;15.60;;;21.70;99.90;;;;;;5043119;28;20236;-42
2023/08/15 05:15:48;;;;;;;17.80;16.70;;;21.80;99.90;;;;;;5042109;28;20193;-39
2023/08/15 05:18:17;;;;;;;18.10;16.63;;;21.90;99.90;;;;;;5042932;28;20641;-44
2023/08/15 05:20:45;;;;;;;17.47;16.40;;;22.00;99.90;;;;;;5043125;28;20636;-41
2023/08/15 05:23:11;;;;;;;16.13;15.13;;;22.10;99.90;;;;;;5024726;28;20475;-40
2023/08/15 05:25:36;;;;;;;16.90;15.93;;;22.30;99.90;;;;;;5042978;28;20491;-45
2023/08/15 05:28:04;;;;;;;17.80;16.60;;;22.40;99.90;;;;;;5042779;28;21385;-42
2023/08/15 05:30:31;;;;;;;17.33;16.33;;;22.50;99.90;;;;;;5043055;28;20189;-42
2023/08/15 05:32:57;;;;;;;17.77;16.67;;;22.50;99.90;;;;;;5042711;28;20423;-42
2023/08/15 05:35:23;;;;;;;16.53;15.43;;;22.60;99.90;;;;;;5042667;28;20413;-41
2023/08/15 05:37:48;;;;;;;16.93;15.90;;;22.70;99.90;;;;;;5042711;28;20499;-42
2023/08/15 05:40:15;;;;;;;16.87;15.90;;;22.70;99.90;;;;;;5041508;28;20224;-41
2023/08/15 05:42:40;;;;;;;16.23;15.23;;;22.80;99.90;;;;;;5041473;28;20255;-41
2023/08/15 05:45:07;;;;;;;17.77;16.77;;;22.90;99.90;;;;;;5042413;28;20420;-41
2023/08/15 05:47:32;;;;;;;16.20;15.17;;;23.00;99.90;;;;;;5042686;28;20214;-43
2023/08/15 05:49:58;;;;;;;16.90;15.90;;;23.00;99.90;;;;;;5041688;28;20570;-44
2023/08/15 05:52:23;;;;;;;16.70;15.70;;;23.10;99.90;;;;;;5043019;28;20166;-43
2023/08/15 05:54:49;;;;;;;16.27;15.27;;;23.20;99.90;;;;;;5041454;28;20205;-40
2023/08/15 05:57:15;;;;;;;17.50;16.50;;;23.20;99.90;;;;;;5041217;28;20269;-44
2023/08/15 05:59:40;;;;;;;16.60;15.70;;;23.30;99.90;;;;;;5042327;28;20177;-42
2023/08/15 06:02:06;;;;;;;16.90;15.97;;;23.30;99.90;;;;;;5041504;28;20189;-41
2023/08/15 06:04:31;;;;;;;17.60;16.60;;;23.40;99.90;;;;;;5041233;28;20225;-41
2023/08/15 06:06:57;;;;;;;16.90;15.90;;;23.40;99.90;;;;;;5042004;28;20182;-43
2023/08/15 06:09:23;;;;;;;16.60;15.70;;;23.50;99.90;;;;;;5042142;28;20185;-47
2023/08/15 06:11:50;;;;;;;16.13;15.23;;;23.50;99.90;;;;;;5041817;28;20185;-44
2023/08/15 06:14:17;;;;;;;16.97;16.07;;;23.50;99.90;;;;;;5040071;28;20181;-42
2023/08/15 06:16:43;;;;;;;16.00;15.10;;;23.70;99.90;;;;;;5041720;28;20450;-43
2023/08/15 06:19:09;;;;;;;17.17;16.17;;;23.70;99.90;;;;;;5041241;28;20428;-40
2023/08/15 06:21:35;;;;;;;17.47;16.47;;;23.70;99.90;;;;;;5042069;28;20452;-41
2023/08/15 06:24:00;;;;;;;17.83;16.53;;;23.80;99.90;;;;;;5041538;28;20569;-44
2023/08/15 06:26:26;;;;;;;17.10;16.00;;;23.90;99.90;;;;;;5041601;28;20490;-53
2023/08/15 06:28:52;;;;;;;16.50;15.53;;;23.90;99.60;;;;;;5023547;28;20181;-56
2023/08/15 06:31:17;;;;;;;16.93;16.03;;;24.00;99.40;;;;;;5041608;28;20190;-52
2023/08/15 06:33:43;;;;;;;17.37;16.37;;;24.10;98.80;;;;;;5041390;28;20525;-51
2023/08/15 06:36:09;;;;;;;15.90;14.90;;;24.10;98.40;;;;;;5041180;28;20227;-52
2023/08/15 06:38:35;;;;;;;16.57;15.63;;;24.20;98.40;;;;;;5041254;28;20272;-52
2023/08/15 06:41:02;;;;;;;15.43;14.53;;;24.30;98.80;;;;;;5040808;28;20435;-51
2023/08/15 06:43:28;;;;;;;17.07;16.17;;;24.30;99.20;;;;;;5040404;28;20287;-53
2023/08/15 06:45:54;;;;;;;16.27;15.37;;;24.30;97.80;;;;;;5041177;28;20493;-50
2023/08/15 06:48:20;;;;;;;16.50;15.60;;;24.40;97.80;;;;;;5023258;28;20915;-54
2023/08/15 06:50:45;;;;;;;17.17;15.97;;;24.50;97.20;;;;;;5040938;28;20181;-53
2023/08/15 06:53:11;;;;;;;16.53;15.53;;;24.50;97.30;;;;;;5040963;28;20428;-49
2023/08/15 06:55:36;;;;;;;16.13;15.20;;;24.60;96.70;;;;;;5040560;28;21350;-51
2023/08/15 06:58:03;;;;;;;16.20;15.40;;;24.60;96.80;;;;;;5040753;28;20347;-54
2023/08/15 07:00:29;;;;;;;16.60;15.70;;;24.70;96.30;;;;;;5041222;28;20269;-51
2023/08/15 07:02:55;;;;;;;16.37;15.47;;;24.70;96.00;;;;;;5022781;28;20464;-53
2023/08/15 07:05:20;;;;;;;16.57;15.57;;;24.80;95.90;;;;;;5040754;28;20181;-51
2023/08/15 07:07:46;;;;;;;17.23;16.27;;;24.90;96.00;;;;;;5040732;28;20252;-52
2023/08/15 07:10:12;;;;;;;18.57;17.37;;;25.00;94.90;;;;;;5038673;28;20926;-49
2023/08/15 07:12:38;;;;;;;15.80;14.90;;;25.10;95.10;;;;;;5041072;28;20223;-54
2023/08/15 07:15:04;;;;;;;17.10;16.20;;;25.10;94.50;;;;;;5040082;28;20834;-53
2023/08/15 07:17:30;;;;;;;16.97;16.00;;;25.20;94.30;;;;;;5040566;28;20259;-52
2023/08/15 07:19:56;;;;;;;16.57;15.57;;;25.30;94.20;;;;;;5039971;28;20930;-54
2023/08/15 07:22:21;;;;;;;16.50;15.60;;;25.30;94.10;;;;;;5040478;28;20193;-55
2023/08/15 07:24:47;;;;;;;16.20;15.20;;;25.40;93.80;;;;;;5040403;28;20242;-53
2023/08/15 07:27:12;;;;;;;16.73;15.77;;;25.50;93.80;;;;;;5040694;28;20185;-43
2023/08/15 07:29:38;;;;;;;16.40;15.40;;;25.60;93.40;;;;;;5040567;28;20188;-44
2023/08/15 07:32:06;;;;;;;16.30;15.30;;;25.60;93.20;;;;;;5040575;28;20192;-41
2023/08/15 07:34:32;;;;;;;17.30;16.20;;;25.80;92.90;;;;;;5037793;28;20774;-47
2023/08/15 07:36:57;;;;;;;17.17;16.17;;;25.90;92.20;;;;;;5037868;28;20497;-48
2023/08/15 07:39:23;;;;;;;17.00;16.00;;;26.00;92.20;;;;;;5036972;28;20447;-43
2023/08/15 07:41:49;;;;;;;17.13;16.13;;;26.10;91.70;;;;;;5018922;28;20600;-44
2023/08/15 07:44:15;;;;;;;16.83;15.93;;;26.20;91.30;;;;;;5039309;28;20314;-47
2023/08/15 07:46:40;;;;;;;17.30;16.20;;;26.30;91.10;;;;;;5039238;28;20197;-53
2023/08/15 07:49:06;;;;;;;16.87;15.97;;;26.40;90.30;;;;;;5039621;28;20182;-54
2023/08/15 07:51:31;;;;;;;17.10;16.03;;;26.50;89.20;;;;;;5039107;28;20189;-55
2023/08/15 07:53:57;;;;;;;17.50;16.60;;;26.60;88.90;;;;;;5020009;28;20198;-51
2023/08/15 07:56:23;;;;;;;17.47;16.47;;;26.70;88.50;;;;;;5040270;28;20188;-53
2023/08/15 07:58:48;;;;;;;16.67;15.53;;;26.90;87.20;;;;;;5039945;28;20278;-51
2023/08/15 08:01:14;;;;;;;17.53;16.30;;;27.10;85.40;;;;;;5039941;28;20185;-55
2023/08/15 08:03:42;;;;;;;17.30;16.30;;;27.30;85.90;;;;;;5040622;28;20198;-52
2023/08/15 08:06:08;;;;;;;16.77;15.73;;;27.60;84.20;;;;;;5043056;28;20174;-54
2023/08/15 08:08:34;;;;;;;16.63;15.73;;;27.70;82.60;;;;;;5042166;28;20899;-47
2023/08/15 08:11:00;;;;;;;17.00;15.77;;;27.90;81.60;;;;;;5043561;28;20474;-51
2023/08/15 08:13:25;;;;;;;16.10;15.20;;;28.10;80.00;;;;;;5043991;28;21307;-54
2023/08/15 08:15:51;;;;;;;16.20;15.23;;;28.30;80.80;;;;;;5042293;28;20189;-51
2023/08/15 08:18:17;;;;;;;16.83;15.83;;;28.50;77.20;;;;;;5026014;28;20185;-55
2023/08/15 08:20:42;;;;;;;16.07;15.27;;;28.80;75.50;;;;;;5043590;28;20186;-52
2023/08/15 08:23:08;;;;;;;17.30;16.30;;;29.00;70.80;;;;;;5043395;28;20205;-52
2023/08/15 08:25:34;;;;;;;16.67;15.77;;;29.10;69.50;;;;;;5043317;28;20241;-52
2023/08/15 08:27:59;;;;;;;17.00;16.10;;;29.40;70.10;;;;;;5043922;28;20174;-55
2023/08/15 08:30:25;;;;;;;16.50;15.60;;;29.60;66.00;;;;;;5043374;28;20427;-53
2023/08/15 08:32:51;;;;;;;16.80;16.00;;;29.70;63.60;;;;;;5043155;28;20174;-54
2023/08/15 08:35:17;;;;;;;16.70;15.70;;;29.70;62.10;;;;;;5041799;28;20447;-55
2023/08/15 08:37:44;;;;;;;16.00;15.13;;;29.80;61.60;;;;;;5042040;28;20670;-54
2023/08/15 08:40:12;;;;;;;15.63;14.63;;;29.80;62.40;;;;;;5042235;28;20439;-56
2023/08/15 08:42:40;;;;;;;17.70;16.80;;;30.00;60.00;;;;;;5043214;28;20768;-52
2023/08/15 08:45:08;;;;;;;17.53;16.53;;;30.10;61.10;;;;;;5042601;28;20813;-54
2023/08/15 08:47:34;;;;;;;17.67;16.77;;;30.30;58.40;;;;;;5042990;28;20412;-53
2023/08/15 08:50:00;;;;;;;16.90;15.87;;;30.30;57.30;;;;;;5043002;28;20789;-53
2023/08/15 08:52:27;;;;;;;16.77;15.90;;;30.30;57.70;;;;;;5040254;28;20428;-54
2023/08/15 08:54:53;;;;;;;15.60;14.80;;;30.30;56.80;;;;;;5041138;28;20922;-54
2023/08/15 08:57:20;;;;;;;16.10;15.20;;;30.50;57.50;;;;;;5042246;28;20419;-53
2023/08/15 08:59:46;;;;;;;16.30;15.30;;;30.70;55.80;;;;;;5042296;28;20408;-56
2023/08/15 09:02:16;;;;;;;17.00;16.00;;;30.90;55.00;;;;;;5041687;28;20439;-52
2023/08/15 09:04:42;;;;;;;16.00;15.10;;;31.20;53.30;;;;;;5042314;28;20579;-46
2023/08/15 09:07:08;;;;;;;17.60;16.70;;;31.50;52.80;;;;;;5042035;28;20496;-42
2023/08/15 09:09:33;;;;;;;17.33;16.33;;;31.80;51.90;;;;;;5040842;28;20186;-45
2023/08/15 09:11:59;;;;;;;15.83;15.03;;;32.10;50.90;;;;;;5042767;28;20178;-46
2023/08/15 09:14:25;;;;;;;17.03;16.13;;;32.30;48.30;;;;;;5041366;28;20182;-45
2023/08/15 09:16:50;;;;;;;16.87;15.97;;;32.70;48.70;;;;;;5041161;28;20186;-47
2023/08/15 09:19:16;;;;;;;16.70;15.90;;;33.40;47.80;;;;;;5043040;28;20186;-43
2023/08/15 09:21:43;;;;;;;17.97;16.97;;;33.80;45.30;;;;;;5041859;28;20178;-43
2023/08/15 09:24:09;;;;;;;17.47;16.57;;;34.30;44.00;;;;;;5042257;28;20476;-44
2023/08/15 09:26:37;;;;;;;17.00;16.10;;;34.70;41.80;;;;;;5042784;28;20964;-47
2023/08/15 09:29:03;;;;;;;16.77;15.90;;;34.60;40.10;;;;;;5042005;28;20543;-45
2023/08/15 09:31:29;;;;;;;17.40;16.60;;;34.80;40.10;;;;;;5040846;28;20436;-45
2023/08/15 09:33:55;;;;;;;16.23;15.33;;;35.20;39.00;;;;;;5041199;28;20474;-43
2023/08/15 09:36:24;;;;;;;17.47;16.57;;;35.70;38.10;;;;;;5040265;28;20181;-45
2023/08/15 09:38:54;;;;;;;17.80;16.90;;;36.10;37.80;;;;;;5020848;28;20472;-43
2023/08/15 09:41:24;;;;;;;18.83;17.63;;;36.40;35.20;;;;;;5038543;28;20432;-44
2023/08/15 09:43:51;;;;;;;16.77;15.80;;;36.50;35.00;;;;;;5041572;28;20464;-45
2023/08/15 09:46:18;;;;;;;18.13;17.20;;;36.80;35.10;;;;;;5040960;28;21226;-45
2023/08/15 09:48:47;;;;;;;15.93;15.03;;;37.20;33.50;;;;;;5039983;28;20438;-42
2023/08/15 09:51:15;;;;;;;16.33;15.50;;;37.50;33.20;;;;;;5041642;28;20490;-44
2023/08/15 09:53:45;;;;;;;17.43;16.37;;;37.80;32.00;;;;;;5040309;28;20440;-43
2023/08/15 09:56:12;;;;;;;17.40;16.50;;;38.10;30.60;;;;;;5054902;28;20818;-42
2023/08/15 09:58:38;;;;;;;17.00;16.20;;;38.10;29.70;;;;;;5042210;28;20506;-46
2023/08/15 10:01:08;;;;;;;17.30;16.40;;;38.00;30.00;;;;;;5040708;28;20502;-42
2023/08/15 10:03:41;;;;;;;17.07;16.17;;;38.20;29.80;;;;;;5021636;28;20464;-42
2023/08/15 10:06:08;;;;;;;18.03;17.17;;;38.50;28.90;;;;;;5039126;28;20481;-46
2023/08/15 10:08:38;;;;;;;17.00;16.20;;;38.60;28.50;;;;;;5038648;28;20458;-43
2023/08/15 10:11:09;;;;;;;17.00;16.20;;;38.70;28.30;;;;;;5039247;28;20813;-47
2023/08/15 10:13:37;;;;;;;17.30;16.40;;;38.40;28.00;;;;;;5040521;28;20420;-44
2023/08/15 10:16:06;;;;;;;17.10;16.30;;;38.90;28.20;;;;;;5041213;28;20424;-50
2023/08/15 10:18:31;;;;;;;17.27;16.27;;;39.10;27.60;;;;;;5041516;28;20809;-51
2023/08/15 10:20:58;;;;;;;17.20;16.40;;;39.10;27.20;;;;;;5040882;28;20427;-52
2023/08/15 10:23:31;;;;;;;17.77;16.87;;;39.10;27.20;;;;;;5041474;28;20336;-55
2023/08/15 10:25:58;;;;;;;17.63;16.63;;;39.30;27.60;;;;;;5021106;28;20428;-50
2023/08/15 10:28:26;;;;;;;18.50;17.50;;;39.30;27.70;;;;;;5021570;28;20892;-55
2023/08/15 10:30:52;;;;;;;17.27;16.30;;;39.70;26.30;;;;;;5021626;28;20452;-55
2023/08/15 10:33:19;;;;;;;16.33;15.53;;;40.10;26.20;;;;;;5019968;28;20417;-52
2023/08/15 10:35:49;;;;;;;17.13;16.27;;;40.40;25.30;;;;;;5019994;28;20281;-51
2023/08/15 10:38:18;;;;;;;17.30;16.50;;;40.10;24.10;;;;;;5019325;28;20580;-53
2023/08/15 10:40:44;;;;;;;17.77;16.67;;;40.30;24.40;;;;;;5017568;28;20433;-50
2023/08/15 10:43:15;;;;;;;18.03;17.07;;;40.50;24.10;;;;;;5018075;28;21600;-51
2023/08/15 10:45:50;;;;;;;17.97;16.97;;;40.40;23.90;;;;;;5019327;28;20564;-48
2023/08/15 10:48:44;;;;;;;17.00;16.20;;;40.30;25.20;;;;;;5020301;28;20866;-52
2023/08/15 10:51:27;;;;;;;17.30;16.43;;;40.50;24.70;;;;;;5020190;28;20426;-55
2023/08/15 10:53:55;;;;;;;17.17;16.27;;;41.00;24.00;;;;;;5019948;28;20954;-51
2023/08/15 10:56:32;;;;;;;17.43;16.53;;;40.80;23.50;;;;;;5009972;28;20443;-53
2023/08/15 10:58:59;;;;;;;17.87;17.07;;;40.50;23.10;;;;;;5020818;28;20478;-56
2023/08/15 11:01:26;;;;;;;16.33;15.47;;;40.90;23.60;;;;;;5019500;28;20452;-51
2023/08/15 11:03:54;;;;;;;16.67;15.87;;;41.50;23.20;;;;;;5020301;28;20452;-55
2023/08/15 11:06:20;;;;;;;17.83;17.00;;;41.90;22.30;;;;;;5018724;28;20919;-51
2023/08/15 11:08:48;;;;;;;17.17;16.37;;;41.60;21.60;;;;;;5020089;28;20432;-51
2023/08/15 11:11:16;;;;;;;17.57;16.77;;;42.00;22.80;;;;;;5019719;28;20190;-53
2023/08/15 11:13:46;;;;;;;17.80;16.80;;;42.40;22.10;;;;;;5018528;28;20532;-54
2023/08/15 11:16:15;;;;;;;17.30;16.13;;;42.60;21.90;;;;;;5018390;28;20439;-53
2023/08/15 11:18:41;;;;;;;17.37;16.47;;;42.90;20.80;;;;;;5019908;28;20409;-53
2023/08/15 11:21:09;;;;;;;16.87;15.97;;;43.10;21.00;;;;;;5019345;28;20966;-50
2023/08/15 11:23:35;;;;;;;16.63;15.83;;;43.40;20.70;;;;;;5019557;28;20563;-51
2023/08/15 11:26:03;;;;;;;17.10;16.20;;;43.80;20.30;;;;;;5039185;28;20437;-49
2023/08/15 11:28:29;;;;;;;16.67;15.93;;;44.10;20.40;;;;;;5021080;28;20181;-51
2023/08/15 11:30:56;;;;;;;16.40;15.60;;;43.70;19.10;;;;;;5039314;28;20422;-52
2023/08/15 11:33:23;;;;;;;16.33;15.53;;;44.00;19.90;;;;;;5037992;28;20771;-55
2023/08/15 11:35:49;;;;;;;17.00;16.10;;;44.30;19.00;;;;;;5039252;28;20432;-51
2023/08/15 11:38:17;;;;;;;16.90;16.10;;;44.30;18.30;;;;;;5020370;28;20651;-54
2023/08/15 11:40:43;;;;;;;17.10;16.20;;;44.60;18.60;;;;;;5039149;28;20636;-48
2023/08/15 11:43:09;;;;;;;15.87;15.17;;;44.50;18.70;;;;;;5038731;28;20201;-54
2023/08/15 11:45:34;;;;;;;17.23;16.13;;;44.70;18.40;;;;;;5039527;28;20180;-52
2023/08/15 11:48:03;;;;;;;16.93;16.13;;;44.80;17.80;;;;;;5039307;28;20239;-50
2023/08/15 11:50:31;;;;;;;17.43;16.60;;;44.30;18.20;;;;;;5039113;28;20207;-51
2023/08/15 11:52:57;;;;;;;16.20;15.50;;;44.30;18.20;;;;;;5039530;28;20370;-54
2023/08/15 11:55:23;;;;;;;16.93;16.13;;;44.70;17.70;;;;;;5022484;28;20210;-53
2023/08/15 11:57:50;;;;;;;17.00;16.10;;;44.30;17.60;;;;;;5022249;28;20284;-51
2023/08/15 12:00:20;;;;;;;17.27;16.37;;;43.30;17.40;;;;;;5039864;28;20185;-53
2023/08/15 12:02:48;;;;;;;17.77;16.80;;;43.20;18.10;;;;;;5039747;28;20428;-53
2023/08/15 12:05:16;;;;;;;18.07;17.10;;;43.10;19.50;;;;;;5039692;28;20427;-49
2023/08/15 12:07:42;;;;;;;18.30;17.40;;;42.50;19.70;;;;;;5040428;28;20527;-49
2023/08/15 12:10:09;;;;;;;18.70;17.60;;;41.30;19.10;;;;;;5022390;28;20485;-52
2023/08/15 12:12:40;;;;;;;17.60;16.70;;;40.60;20.40;;;;;;5022247;28;20432;-51
2023/08/15 12:15:08;;;;;;;17.67;16.77;;;40.40;22.10;;;;;;5021692;28;20435;-54
2023/08/15 12:17:37;;;;;;;16.50;15.60;;;40.50;21.50;;;;;;5039261;28;21254;-49
2023/08/15 12:20:06;;;;;;;17.27;16.37;;;40.90;21.90;;;;;;5039945;28;20415;-49
2023/08/15 12:22:32;;;;;;;16.40;15.60;;;41.10;21.10;;;;;;5039883;28;20424;-54
2023/08/15 12:24:58;;;;;;;16.37;15.57;;;41.30;21.00;;;;;;5039615;28;20879;-51
2023/08/15 12:27:24;;;;;;;17.23;16.43;;;41.60;20.80;;;;;;5039966;28;20501;-51